sensor_id;sensor_type;location;lat;lon;timestamp;P1;durP1;ratioP1;P2;durP2;ratioP2
38252;SDS011;24785;52.372;20.672;2022-09-09T00:00:12;12.30;;;4.20;;
38252;SDS011;24785;52.372;20.672;2022-09-09T00:10:37;12.25;;;3.90;;
38252;SDS011;24785;52.372;20.672;2022-09-09T00:30:52;13.80;;;5.27;;
38252;SDS011;24785;52.372;20.672;2022-09-09T00:41:03;13.40;;;6.97;;
38252;SDS011;24785;52.372;20.672;2022-09-09T00:51:19;14.85;;;6.05;;
38252;SDS011;24785;52.372;20.672;2022-09-09T01:01:28;17.17;;;6.88;;
38252;SDS011;24785;52.372;20.672;2022-09-09T01:22:08;13.10;;;6.18;;
38252;SDS011;24785;52.372;20.672;2022-09-09T01:42:59;14.17;;;7.70;;
38252;SDS011;24785;52.372;20.672;2022-09-09T01:53:00;14.80;;;7.03;;
38252;SDS011;24785;52.372;20.672;2022-09-09T02:13:11;15.57;;;7.57;;
38252;SDS011;24785;52.372;20.672;2022-09-09T02:23:14;11.50;;;6.35;;
38252;SDS011;24785;52.372;20.672;2022-09-09T02:33:15;18.55;;;7.65;;
38252;SDS011;24785;52.372;20.672;2022-09-09T02:43:16;16.55;;;7.00;;
38252;SDS011;24785;52.372;20.672;2022-09-09T02:53:20;16.13;;;7.68;;
38252;SDS011;24785;52.372;20.672;2022-09-09T03:03:33;13.68;;;7.07;;
38252;SDS011;24785;52.372;20.672;2022-09-09T03:13:34;16.40;;;7.55;;
38252;SDS011;24785;52.372;20.672;2022-09-09T03:23:35;20.95;;;7.45;;
38252;SDS011;24785;52.372;20.672;2022-09-09T03:33:37;17.30;;;8.20;;
38252;SDS011;24785;52.372;20.672;2022-09-09T03:43:38;16.90;;;8.73;;
38252;SDS011;24785;52.372;20.672;2022-09-09T03:53:39;26.33;;;15.27;;
38252;SDS011;24785;52.372;20.672;2022-09-09T04:03:40;17.10;;;10.10;;
38252;SDS011;24785;52.372;20.672;2022-09-09T04:13:42;17.95;;;8.55;;
38252;SDS011;24785;52.372;20.672;2022-09-09T04:23:44;19.50;;;8.67;;
38252;SDS011;24785;52.372;20.672;2022-09-09T04:33:45;18.85;;;10.30;;
38252;SDS011;24785;52.372;20.672;2022-09-09T04:43:46;16.48;;;8.70;;
38252;SDS011;24785;52.372;20.672;2022-09-09T04:53:47;15.40;;;7.80;;
38252;SDS011;24785;52.372;20.672;2022-09-09T05:03:49;14.45;;;8.23;;
38252;SDS011;24785;52.372;20.672;2022-09-09T05:13:50;17.25;;;8.32;;
38252;SDS011;24785;52.372;20.672;2022-09-09T05:23:52;13.45;;;7.35;;
38252;SDS011;24785;52.372;20.672;2022-09-09T05:33:53;13.07;;;7.70;;
38252;SDS011;24785;52.372;20.672;2022-09-09T05:43:54;16.73;;;7.85;;
38252;SDS011;24785;52.372;20.672;2022-09-09T05:53:55;13.88;;;7.55;;
38252;SDS011;24785;52.372;20.672;2022-09-09T06:03:58;15.07;;;8.15;;
38252;SDS011;24785;52.372;20.672;2022-09-09T06:14:00;12.90;;;6.78;;
38252;SDS011;24785;52.372;20.672;2022-09-09T06:24:01;11.38;;;7.15;;
38252;SDS011;24785;52.372;20.672;2022-09-09T06:34:03;13.98;;;6.35;;
38252;SDS011;24785;52.372;20.672;2022-09-09T06:44:07;9.85;;;5.88;;
38252;SDS011;24785;52.372;20.672;2022-09-09T06:54:08;9.93;;;5.85;;
38252;SDS011;24785;52.372;20.672;2022-09-09T07:04:09;11.07;;;5.75;;
38252;SDS011;24785;52.372;20.672;2022-09-09T07:14:11;16.67;;;6.43;;
38252;SDS011;24785;52.372;20.672;2022-09-09T07:24:16;11.85;;;6.30;;
38252;SDS011;24785;52.372;20.672;2022-09-09T07:34:17;9.75;;;5.63;;
38252;SDS011;24785;52.372;20.672;2022-09-09T07:44:20;10.63;;;5.68;;
38252;SDS011;24785;52.372;20.672;2022-09-09T07:54:22;13.32;;;5.82;;
38252;SDS011;24785;52.372;20.672;2022-09-09T08:04:24;10.48;;;5.90;;
38252;SDS011;24785;52.372;20.672;2022-09-09T08:14:26;14.37;;;6.30;;
38252;SDS011;24785;52.372;20.672;2022-09-09T08:24:27;10.88;;;6.57;;
38252;SDS011;24785;52.372;20.672;2022-09-09T08:34:28;13.40;;;6.97;;
38252;SDS011;24785;52.372;20.672;2022-09-09T08:54:35;13.10;;;7.70;;
38252;SDS011;24785;52.372;20.672;2022-09-09T09:04:38;16.70;;;7.82;;
38252;SDS011;24785;52.372;20.672;2022-09-09T09:14:50;14.80;;;8.48;;
38252;SDS011;24785;52.372;20.672;2022-09-09T09:34:56;18.05;;;9.52;;
38252;SDS011;24785;52.372;20.672;2022-09-09T09:45:07;22.50;;;10.60;;
38252;SDS011;24785;52.372;20.672;2022-09-09T09:55:12;21.47;;;11.27;;
38252;SDS011;24785;52.372;20.672;2022-09-09T10:05:21;25.52;;;12.32;;
38252;SDS011;24785;52.372;20.672;2022-09-09T10:25:56;27.58;;;14.02;;
38252;SDS011;24785;52.372;20.672;2022-09-09T10:46:44;26.83;;;13.30;;
38252;SDS011;24785;52.372;20.672;2022-09-09T10:56:59;28.13;;;14.30;;
38252;SDS011;24785;52.372;20.672;2022-09-09T11:07:06;28.20;;;14.80;;
38252;SDS011;24785;52.372;20.672;2022-09-09T11:17:16;25.85;;;15.38;;
38252;SDS011;24785;52.372;20.672;2022-09-09T11:27:36;34.13;;;15.95;;
38252;SDS011;24785;52.372;20.672;2022-09-09T11:37:46;37.90;;;19.10;;
38252;SDS011;24785;52.372;20.672;2022-09-09T11:48:10;39.08;;;18.58;;
38252;SDS011;24785;52.372;20.672;2022-09-09T11:58:25;34.17;;;18.85;;
38252;SDS011;24785;52.372;20.672;2022-09-09T12:08:27;35.05;;;17.67;;
38252;SDS011;24785;52.372;20.672;2022-09-09T12:39:09;43.35;;;20.27;;
38252;SDS011;24785;52.372;20.672;2022-09-09T12:49:26;67.05;;;36.85;;
38252;SDS011;24785;52.372;20.672;2022-09-09T12:59:36;51.95;;;23.10;;
38252;SDS011;24785;52.372;20.672;2022-09-09T13:09:38;52.97;;;24.40;;
38252;SDS011;24785;52.372;20.672;2022-09-09T13:19:39;56.15;;;24.58;;
38252;SDS011;24785;52.372;20.672;2022-09-09T13:29:51;69.15;;;29.15;;
38252;SDS011;24785;52.372;20.672;2022-09-09T13:39:55;61.90;;;26.45;;
38252;SDS011;24785;52.372;20.672;2022-09-09T13:49:56;53.55;;;23.23;;
38252;SDS011;24785;52.372;20.672;2022-09-09T13:59:56;59.45;;;24.90;;
38252;SDS011;24785;52.372;20.672;2022-09-09T14:09:57;54.45;;;22.42;;
38252;SDS011;24785;52.372;20.672;2022-09-09T14:20:00;57.60;;;23.00;;
38252;SDS011;24785;52.372;20.672;2022-09-09T14:30:01;56.05;;;24.02;;
38252;SDS011;24785;52.372;20.672;2022-09-09T14:40:03;58.78;;;24.75;;
38252;SDS011;24785;52.372;20.672;2022-09-09T14:50:04;61.08;;;24.85;;
38252;SDS011;24785;52.372;20.672;2022-09-09T15:10:09;58.83;;;25.85;;
38252;SDS011;24785;52.372;20.672;2022-09-09T15:20:10;62.88;;;29.27;;
38252;SDS011;24785;52.372;20.672;2022-09-09T15:30:11;58.28;;;25.05;;
38252;SDS011;24785;52.372;20.672;2022-09-09T15:40:12;56.40;;;24.50;;
38252;SDS011;24785;52.372;20.672;2022-09-09T15:50:16;72.82;;;27.73;;
38252;SDS011;24785;52.372;20.672;2022-09-09T16:00:18;72.72;;;25.90;;
38252;SDS011;24785;52.372;20.672;2022-09-09T16:10:19;181.65;;;76.57;;
38252;SDS011;24785;52.372;20.672;2022-09-09T16:20:20;73.95;;;30.60;;
38252;SDS011;24785;52.372;20.672;2022-09-09T16:30:21;71.00;;;26.30;;
38252;SDS011;24785;52.372;20.672;2022-09-09T16:40:22;61.38;;;25.27;;
38252;SDS011;24785;52.372;20.672;2022-09-09T16:50:23;70.07;;;26.88;;
38252;SDS011;24785;52.372;20.672;2022-09-09T17:00:24;57.55;;;24.27;;
38252;SDS011;24785;52.372;20.672;2022-09-09T17:10:25;55.50;;;23.50;;
38252;SDS011;24785;52.372;20.672;2022-09-09T17:20:26;59.20;;;26.10;;
38252;SDS011;24785;52.372;20.672;2022-09-09T17:30:26;45.50;;;20.13;;
38252;SDS011;24785;52.372;20.672;2022-09-09T17:40:27;71.20;;;34.13;;
38252;SDS011;24785;52.372;20.672;2022-09-09T17:50:28;53.70;;;22.35;;
38252;SDS011;24785;52.372;20.672;2022-09-09T18:00:29;52.85;;;22.77;;
38252;SDS011;24785;52.372;20.672;2022-09-09T18:10:30;52.35;;;21.60;;
38252;SDS011;24785;52.372;20.672;2022-09-09T18:20:31;56.63;;;24.42;;
38252;SDS011;24785;52.372;20.672;2022-09-09T18:30:37;50.45;;;22.05;;
38252;SDS011;24785;52.372;20.672;2022-09-09T18:40:39;59.90;;;25.42;;
38252;SDS011;24785;52.372;20.672;2022-09-09T18:50:40;48.70;;;22.15;;
38252;SDS011;24785;52.372;20.672;2022-09-09T19:00:44;46.55;;;21.50;;
38252;SDS011;24785;52.372;20.672;2022-09-09T19:10:46;52.42;;;21.77;;
38252;SDS011;24785;52.372;20.672;2022-09-09T19:20:47;43.00;;;20.63;;
38252;SDS011;24785;52.372;20.672;2022-09-09T19:30:48;48.67;;;24.88;;
38252;SDS011;24785;52.372;20.672;2022-09-09T19:40:49;83.57;;;49.38;;
38252;SDS011;24785;52.372;20.672;2022-09-09T19:50:50;51.95;;;24.70;;
38252;SDS011;24785;52.372;20.672;2022-09-09T20:00:51;44.15;;;22.73;;
38252;SDS011;24785;52.372;20.672;2022-09-09T20:10:53;40.90;;;19.03;;
38252;SDS011;24785;52.372;20.672;2022-09-09T20:21:01;39.75;;;18.88;;
38252;SDS011;24785;52.372;20.672;2022-09-09T20:31:08;30.50;;;17.05;;
38252;SDS011;24785;52.372;20.672;2022-09-09T20:41:12;39.38;;;18.95;;
38252;SDS011;24785;52.372;20.672;2022-09-09T21:01:19;32.45;;;17.30;;
38252;SDS011;24785;52.372;20.672;2022-09-09T21:11:21;30.40;;;15.40;;
38252;SDS011;24785;52.372;20.672;2022-09-09T21:21:22;38.83;;;21.17;;
38252;SDS011;24785;52.372;20.672;2022-09-09T21:31:22;37.13;;;18.25;;
38252;SDS011;24785;52.372;20.672;2022-09-09T21:41:24;45.35;;;21.92;;
38252;SDS011;24785;52.372;20.672;2022-09-09T21:51:25;38.47;;;18.42;;
38252;SDS011;24785;52.372;20.672;2022-09-09T22:01:25;42.35;;;19.00;;
38252;SDS011;24785;52.372;20.672;2022-09-09T22:11:26;41.35;;;18.02;;
38252;SDS011;24785;52.372;20.672;2022-09-09T22:21:29;54.93;;;27.47;;
38252;SDS011;24785;52.372;20.672;2022-09-09T22:31:32;34.90;;;17.75;;
38252;SDS011;24785;52.372;20.672;2022-09-09T22:41:34;34.50;;;16.90;;
38252;SDS011;24785;52.372;20.672;2022-09-09T22:51:35;32.47;;;15.52;;
38252;SDS011;24785;52.372;20.672;2022-09-09T23:01:36;31.27;;;13.90;;
38252;SDS011;24785;52.372;20.672;2022-09-09T23:11:37;22.45;;;11.70;;
38252;SDS011;24785;52.372;20.672;2022-09-09T23:21:38;22.45;;;11.85;;
38252;SDS011;24785;52.372;20.672;2022-09-09T23:31:41;22.30;;;12.43;;
38252;SDS011;24785;52.372;20.672;2022-09-09T23:41:44;19.90;;;11.93;;
38252;SDS011;24785;52.372;20.672;2022-09-09T23:51:48;24.05;;;12.38;;
